Polarstern — DBLK — position and weather

sailwx.info

Track history (hours):
 
Tides and Currents Weather Stations Pressure Air Temp Water Temp Dewpoint Dewpoint Depression Visibility Wind Speed Wind Dir Waves Ship Positions

Oceanographic research ship Polarstern (Germany)

Detailed information on ship capabilities available from University of Delaware's Ocean Information Center and ARCUS's ALIAS (Arctic Logistics Information and Support) project.

Last reported at 2015-Jul-31 08:00 UTC. Time now 2015-Jul-31 09:21 UTC.
Position N 78°36' W 002°54'.

Length 117.9 m; beam 25 m; draft 10.7 m.

MMSI: 211202460.

Wind from 010 at 16 knots

Barometer 1022.1 mb
Air temperature -0.1 ° C
Dewpoint -0.1 ° C
Water temperature -0.0 ° C

Date/timePositionNaut miles runAvg speedWind from/ knotsBaromVisibWave heightAir tempDewpointWater temp
2015-Jul-31 08:00N 78°36' W 002°54'0 0.0 010 / 161022.1 -0.1-0.1-0.0
2015-Jul-31 07:00N 78°36' W 002°54'2 2.4 020 / 171021.8 -0.1-0.1 0.2
2015-Jul-31 06:00N 78°36' W 002°42'6 6.0 020 / 141021.9 0.3 0.1 0.1-1.3
2015-Jul-31 05:00N 78°42' W 002°42'1212.0 020 / 141022.1 0.3 0.3-0.8
2015-Jul-31 04:00N 78°54' W 002°42'0 0.0 010 / 141022.0 0.2 0.2-1.2
2015-Jul-31 03:00N 78°54' W 002°42'0 0.0 020 / 121022.1 0.4 0.4-0.9
2015-Jul-31 02:00N 78°54' W 002°42'0 0.0 030 / 121022.4 0.5 0.5-1.1
2015-Jul-31 00:00N 78°54' W 002°42'0 0.0 030 / 161022.1 0.3 0.3-0.7
2015-Jul-30 23:00N 78°54' W 002°42'0 0.0 020 / 141022.0 0.3 0.3-0.4
2015-Jul-30 22:00N 78°54' W 002°42'0 0.0 030 / 121022.1 0.2 0.2-0.0
2015-Jul-30 21:00N 78°54' W 002°42'0 0.0 060 / 121022.1 0.1 0.1 0.2
2015-Jul-30 20:00N 78°54' W 002°42'1 1.2 040 / 171021.5 0.3 0.1-0.5
2015-Jul-30 19:00N 78°54' W 002°48'0 0.0 050 / 161021.7 0.1 0.1-0.5
2015-Jul-30 18:00N 78°54' W 002°48'0 0.0 050 / 171021.6 5.4 0.3 0.1-0.3
2015-Jul-30 17:00N 78°54' W 002°48'6 6.0 050 / 171021.1 0.4 0.3-0.1
2015-Jul-30 16:00N 78°48' W 002°48'6 1.2 050 / 171021.1 0.3 0.1 0.7
2015-Jul-30 11:00N 78°42' W 002°48'12 4.0 050 / 171019.8 0.9 0.8-0.3
2015-Jul-30 08:00N 78°30' W 002°48'0 0.0 080 / 121018.8 5.8 5.6 5.0
2015-Jul-30 07:00N 78°30' W 002°48'8 4.2 090 / 121018.4 6.1 6.1 5.2
2015-Jul-30 05:00N 78°36' W 002°18'7 7.1 090 / 141017.6 5.9 5.9 0.5
2015-Jul-30 04:00N 78°36' W 001°42'9 9.3 080 / 141017.3 5.7 5.7 2.2
2015-Jul-30 03:00N 78°42' W 001°06'9 9.2 080 / 161017.3 5.3 5.3 5.4
2015-Jul-30 02:00N 78°48' W 000°30'7 7.0 100 / 121017.4 5.5 5.5 3.7
2015-Jul-30 01:00N 78°48' E 000°06'8 8.3 110 / 121017.0 5.5 5.5 5.4
2015-Jul-30 00:00N 78°54' E 000°36'9 9.1 100 / 161016.8 4.4 4.4 0.3
2015-Jul-29 23:00N 79°00' E 001°12'8 8.0 100 / 161016.6 6.3 6.1-0.9
2015-Jul-29 22:00N 79°00' E 001°54'9 9.1 110 / 161016.3 6.0 5.8 3.8
2015-Jul-29 21:00N 79°06' E 002°30'3 3.4 100 / 161016.0 6.9 6.3 0.8
2015-Jul-29 20:00N 79°06' E 002°48'0 0.0 100 / 161015.8 7.6 6.0 1.2
2015-Jul-29 19:00N 79°06' E 002°48'0 0.0 110 / 161015.4 7.5 6.0 1.4
2015-Jul-29 18:00N 79°06' E 002°48'0 0.0 100 / 191014.8 5.4 7.3 6.3-0.1
2015-Jul-29 17:00N 79°06' E 002°48'0 0.0 090 / 161014.4 7.3 6.4-0.2
2015-Jul-29 16:00N 79°06' E 002°48'0 0.0 100 / 161014.0 6.9 6.5 0.9
2015-Jul-29 15:00N 79°06' E 002°48'2 2.3 110 / 161013.6 5.4 7.3 6.6 0.6
2015-Jul-29 14:00N 79°06' E 003°00'3 1.7 120 / 161013.6 7.1 6.4 3.2
2015-Jul-29 12:00N 79°06' E 003°18'0 0.0 110 / 141012.6 5.4 7.3 6.0 3.8
2015-Jul-29 11:00N 79°06' E 003°18'0 0.0 110 / 121012.4 6.9 6.3 3.8
2015-Jul-29 10:00N 79°06' E 003°18'0 0.0 120 / 121012.0 6.8 6.2 3.8
2015-Jul-29 09:00N 79°06' E 003°18'0 0.0 120 / 141011.3 2.2 0.5 6.6 6.0 4.0
2015-Jul-29 08:00N 79°06' E 003°18'0 0.0 110 / 171010.9 7.2 5.8 4.2
2015-Jul-29 07:00N 79°06' E 003°18'2 1.1 110 / 171010.7 6.9 6.4 4.9
2015-Jul-29 05:00N 79°06' E 003°30'0 0.0 080 / 121010.0 6.5 5.3 5.8
2015-Jul-29 03:00N 79°06' E 003°30'0 0.0 060 / 101010.1 6.1 5.8 7.0
2015-Jul-29 02:00N 79°06' E 003°30'0 0.0 030 / 61010.5 5.9 5.6 7.0
2015-Jul-29 01:00N 79°06' E 003°30'1 0.6 040 / 61010.7 6.2 5.4 7.1
2015-Jul-28 23:00N 79°06' E 003°36'0 0.0 090 / 61010.6 5.7 4.7 6.6
2015-Jul-28 22:00N 79°06' E 003°36'0 0.0 070 / 21010.7 5.3 4.5 7.1
2015-Jul-28 21:00N 79°06' E 003°36'0 0.0 100 / 21011.0 4.8 4.2 7.1
2015-Jul-28 20:00N 79°06' E 003°36'0 0.0 230 / 21011.0 4.7 3.9 7.1
2015-Jul-28 19:00N 79°06' E 003°36'0 0.0 200 / 21011.0 4.4 3.7 6.9
2015-Jul-28 18:00N 79°06' E 003°36'0 0.0 200 / 21011.510.8 4.1 3.7 6.9
2015-Jul-28 17:00N 79°06' E 003°36'6 5.7 060 / 41011.9 3.6 3.6 6.9
2015-Jul-28 16:00N 79°06' E 004°06'0 0.0 020 / 61012.4 3.5 3.5 7.2
2015-Jul-28 15:00N 79°06' E 004°06'0 0.0 360 / 121012.910.8 1.0 3.1 2.8 7.2
2015-Jul-28 14:00N 79°06' E 004°06'0 0.0 020 / 171013.2 3.5 2.5 7.2
2015-Jul-28 13:00N 79°06' E 004°06'0 0.0 360 / 171013.9 3.5 3.1 7.2
2015-Jul-28 12:00N 79°06' E 004°06'0 0.0 010 / 171014.810.8 1.0 3.2 2.5 7.2
2015-Jul-28 11:00N 79°06' E 004°06'0 0.0 010 / 191015.7 3.2 3.0 7.2
2015-Jul-28 10:00N 79°06' E 004°06'0 0.0 010 / 191016.0 3.2 2.0 7.2
2015-Jul-28 09:00N 79°06' E 004°06'0 0.0 020 / 191016.7 5.4 1.0 4.4 3.1 7.2
2015-Jul-28 08:00N 79°06' E 004°06'0 0.0 040 / 171017.0 5.1 2.9 7.2
2015-Jul-28 07:00N 79°06' E 004°06'0 0.0 040 / 161017.5 5.2 4.0 7.1
2015-Jul-28 06:00N 79°06' E 004°06'5 4.5 040 / 161017.610.8 0.5 5.0 2.2 7.2
2015-Jul-28 05:00N 79°06' E 003°42'0 0.0 060 / 161018.1 5.4 2.2 7.0
2015-Jul-28 04:00N 79°06' E 003°42'0 0.0 040 / 141018.7 5.5 2.3 7.2
2015-Jul-28 03:00N 79°06' E 003°42'0 0.0 050 / 121019.0 5.6 2.1 7.4
2015-Jul-28 02:00N 79°06' E 003°42'0 0.0 060 / 101019.3 5.6 2.1 7.7
2015-Jul-28 01:00N 79°06' E 003°42'0 0.0 090 / 41019.7 5.7 1.4 7.4
2015-Jul-28 00:00N 79°06' E 003°42'0 0.0 110 / 61020.1 5.7 1.0 7.7
2015-Jul-27 23:00N 79°06' E 003°42'2 2.3 100 / 61020.3 5.4 2.7 7.3
2015-Jul-27 22:00N 79°06' E 003°54'3 3.4 100 / 41020.3 5.2 2.6 7.2
2015-Jul-27 21:00N 79°06' E 004°12'0 0.0 130 / 41020.2 5.3 1.8 7.2
2015-Jul-27 20:00N 79°06' E 004°12'1 1.1 150 / 41020.6 5.0 1.7 7.3
2015-Jul-27 19:00N 79°06' E 004°18'0 0.0 170 / 81020.5 4.9 1.4 7.3
2015-Jul-27 18:00N 79°06' E 004°18'2 2.3 160 / 61020.610.8 4.8 1.4 7.2
2015-Jul-27 17:00N 79°06' E 004°06'6 6.4 130 / 101020.8 4.5 2.5 7.0
2015-Jul-27 16:00N 79°12' E 003°54'0 0.0 170 / 41020.8 4.6 1.8 6.9
2015-Jul-27 15:00N 79°12' E 003°54'8 7.5 160 / 61020.810.8 4.4 1.4 7.0
2015-Jul-27 14:00N 79°06' E 004°18'6 6.1 170 / 81021.0 4.6 1.8 7.2
2015-Jul-27 13:00N 79°00' E 004°24'0 0.0 160 / 101021.1 4.3 1.2 7.1
2015-Jul-27 12:00N 79°00' E 004°24'0 0.0 180 / 101020.910.8 0.5 4.1 1.9 7.0
2015-Jul-27 11:00N 79°00' E 004°24'7 6.9 170 / 121020.7 4.0 1.9 7.1
2015-Jul-27 10:00N 79°06' E 004°06'0 0.0 170 / 121020.6 4.2 2.2 7.1
2015-Jul-27 09:00N 79°06' E 004°06'0 0.0 170 / 121020.510.8 0.5 4.1 2.1 6.9
2015-Jul-27 08:00N 79°06' E 004°06'1 1.1 180 / 121020.3 4.0 2.4 7.1
2015-Jul-27 07:00N 79°06' E 004°12'1 1.1 180 / 141020.3 4.4 2.4 7.0
2015-Jul-27 06:00N 79°06' E 004°06'1 1.1 170 / 141020.210.8 0.5 4.0 2.9 7.0
2015-Jul-27 05:00N 79°06' E 004°12'0 0.0 170 / 161020.0 3.9 2.8 6.8
2015-Jul-27 04:00N 79°06' E 004°12'0 0.0 180 / 161019.9 4.0 2.3 6.9
2015-Jul-27 03:00N 79°06' E 004°12'1 1.1 170 / 171019.7 3.8 2.1 6.9
2015-Jul-27 02:00N 79°06' E 004°18'0 0.0 180 / 171020.0 3.8 1.9 6.8
2015-Jul-27 01:00N 79°06' E 004°18'0 0.0 180 / 171019.8 4.1 1.8 6.8
2015-Jul-27 00:00N 79°06' E 004°18'6 6.1 180 / 171019.8 4.4 1.7 6.8
2015-Jul-26 23:00N 79°00' E 004°12'0 0.0 180 / 161019.9 4.6 2.1 6.8
2015-Jul-26 22:00N 79°00' E 004°12'0 0.0 180 / 141019.9 4.5 2.1 6.8
2015-Jul-26 21:00N 79°00' E 004°12'0 0.0 170 / 141019.8 4.1 1.7 6.6
2015-Jul-26 20:00N 79°00' E 004°12'6 6.1 160 / 141019.6 3.8 1.7 7.0
2015-Jul-26 19:00N 79°06' E 004°06'0 0.0 160 / 101019.6 3.8 1.9 7.1
2015-Jul-26 18:00N 79°06' E 004°06'0 0.0 170 / 81019.710.8 4.1 2.1 6.4
2015-Jul-26 17:00N 79°06' E 004°06'0 0.0 180 / 61019.6 3.9 1.6 6.5
2015-Jul-26 16:00N 79°06' E 004°06'0 0.0 200 / 61019.6 3.6 1.4 6.7
2015-Jul-26 15:00N 79°06' E 004°06'0 0.0 240 / 61019.410.8 3.0 1.1 6.9
2015-Jul-26 14:00N 79°06' E 004°06'0 0.0 220 / 81019.2 2.2 0.7 7.1
2015-Jul-26 13:00N 79°06' E 004°06'0 0.0 240 / 81018.7 2.1 0.5 7.1
2015-Jul-26 12:00N 79°06' E 004°06'0 0.0 240 / 81018.427.0 2.0 0.5 7.0
2015-Jul-26 11:00N 79°06' E 004°06'0 0.0 250 / 81018.1 1.5-0.0 7.0
2015-Jul-26 10:00N 79°06' E 004°06'0 0.0 240 / 101017.6 1.2-0.1 6.7
2015-Jul-26 09:00N 79°06' E 004°06'0 0.0 250 / 101017.210.8 1.4-0.0 7.0
2015-Jul-26 08:00N 79°06' E 004°06'1 1.1 250 / 101016.4 1.2-0.3 6.9
2015-Jul-26 07:00N 79°06' E 004°12'0 0.0 250 / 121016.0 1.1-0.0 6.9
2015-Jul-26 06:00N 79°06' E 004°12'0 0.0 260 / 101015.510.8 1.4-0.5 6.9
2015-Jul-26 05:00N 79°06' E 004°12'0 0.0 260 / 101015.1 0.8-0.1 6.8
2015-Jul-26 04:00N 79°06' E 004°12'0 0.0 270 / 101014.6 0.8-0.2 6.9
2015-Jul-26 03:00N 79°06' E 004°12'0 0.0 280 / 121014.0 0.9-0.8 6.9
2015-Jul-26 02:00N 79°06' E 004°12'0 0.0 270 / 121013.7 0.9-0.2 7.0
2015-Jul-26 01:00N 79°06' E 004°12'0 0.0 270 / 101013.2 1.4 0.1 6.9
2015-Jul-26 00:00N 79°06' E 004°12'0 0.0 270 / 101012.7 1.2-0.2 6.9
2015-Jul-25 23:00N 79°06' E 004°12'0 0.0 270 / 101012.2 1.5 0.2 7.0
2015-Jul-25 22:00N 79°06' E 004°12'1 1.1 260 / 101011.6 1.3-0.1 7.1
2015-Jul-25 21:00N 79°06' E 004°18'0 0.0 260 / 101011.3 1.4 0.6 7.1
2015-Jul-25 20:00N 79°06' E 004°18'6 6.0 270 / 101011.0 1.7 0.4 7.1
2015-Jul-25 19:00N 79°00' E 004°18'1212.1 270 / 101010.6 1.4 0.4 6.4
2015-Jul-25 18:00N 78°48' E 004°24'6 6.0 280 / 101010.310.8 0.5 2.0 0.5 6.1
2015-Jul-25 17:00N 78°54' E 004°24'0 0.0 280 / 101010.3 1.6-0.2 6.2
2015-Jul-25 16:00N 78°54' E 004°24'6 6.4 270 / 101010.1 1.5 0.2 6.1
2015-Jul-25 15:00N 78°48' E 004°36'1313.4 280 / 101009.810.8 0.5 1.8 0.7 6.6
2015-Jul-25 14:00N 78°36' E 005°06'0 0.0 310 / 81009.6 2.1 1.4 7.0
2015-Jul-25 12:00N 78°36' E 005°06'0 0.0 300 / 101009.0 5.4 0.5 2.5 1.6 7.1
2015-Jul-25 11:00N 78°36' E 005°06'0 0.0 310 / 101008.4 2.7 1.3 7.0
2015-Jul-25 10:00N 78°36' E 005°06'0 0.0 300 / 101008.1 2.5 1.4 7.0
2015-Jul-25 09:00N 78°36' E 005°06'0 0.0 310 / 121007.4 5.4 0.5 2.3 0.9 7.0
2015-Jul-25 08:00N 78°36' E 005°06'0 0.0 300 / 141007.1 2.0 0.8 7.0
2015-Jul-25 07:00N 78°36' E 005°06'0 0.0 310 / 121006.8 2.3 1.2 7.0
2015-Jul-25 06:00N 78°36' E 005°06'0 0.0 310 / 141006.6 5.4 1.0 2.4 1.7 7.0
2015-Jul-25 05:00N 78°36' E 005°06'0 0.0 320 / 141006.5 2.5 1.8 7.1
2015-Jul-25 04:00N 78°36' E 005°06'0 0.0 320 / 121006.3 2.9 2.0 6.9
2015-Jul-25 03:00N 78°36' E 005°06'0 0.0 310 / 141006.2 2.5 1.9 6.9
2015-Jul-25 02:00N 78°36' E 005°06'0 0.0 320 / 141006.2 2.7 1.9 6.9
2015-Jul-25 01:00N 78°36' E 005°06'0 0.0 320 / 141006.2 3.2 2.1 6.9
2015-Jul-25 00:00N 78°36' E 005°06'1 1.2 320 / 161006.1 3.2 2.4 6.9
2015-Jul-24 23:00N 78°36' E 005°00'0 0.0 330 / 161006.2 3.5 1.8 7.0
2015-Jul-24 22:00N 78°36' E 005°00'0 0.0 340 / 161006.0 3.4 2.6 7.0
2015-Jul-24 21:00N 78°36' E 005°00'1 1.2 340 / 171005.8 3.7 2.6 7.0
2015-Jul-24 20:00N 78°36' E 005°06'0 0.0 350 / 161005.8 3.9 2.8 7.0
2015-Jul-24 18:00N 78°36' E 005°06'1 1.2 350 / 191005.5 5.4 1.0 4.1 3.3 7.1
2015-Jul-24 17:00N 78°36' E 005°12'1 1.2 350 / 171005.4 3.5 2.9 7.2
2015-Jul-24 16:00N 78°36' E 005°06'104 5.5 350 / 191005.5 3.5 3.1 7.1
2015-Jul-23 21:00N 77°00' E 008°18'1312.7 330 / 291006.2 4.8 4.2 7.6
2015-Jul-23 20:00N 76°48' E 008°36'7 7.3 330 / 311006.4 5.2 3.5 7.3
2015-Jul-23 19:00N 76°42' E 008°54'1212.3 330 / 311006.1 5.3 3.6 7.5
2015-Jul-23 18:00N 76°30' E 009°06'7 7.3 330 / 271006.8 5.4 3.5 5.5 3.9 7.6
2015-Jul-23 17:00N 76°24' E 009°24'1312.7 330 / 291006.6 5.5 4.0 7.4
2015-Jul-23 16:00N 76°12' E 009°42'7 6.7 330 / 291006.7 5.3 4.2 7.5
2015-Jul-23 15:00N 76°06' E 009°54'7 7.4 330 / 271006.7 2.2 3.5 5.1 3.4 7.6
2015-Jul-23 14:00N 76°00' E 010°12'1212.4 330 / 291007.6 5.1 2.8 7.6
2015-Jul-23 13:00N 75°48' E 010°24'7 7.5 330 / 291007.4 5.0 1.9 7.3
2015-Jul-23 12:00N 75°42' E 010°42'1312.8 330 / 291007.6 5.4 2.5 5.0 2.5 7.2
2015-Jul-23 11:00N 75°30' E 011°00'1212.4 330 / 271008.2 5.4 2.5 7.2
2015-Jul-23 10:00N 75°18' E 011°12'8 7.5 330 / 271008.3 5.6 1.7 7.4
2015-Jul-23 09:00N 75°12' E 011°30'1312.9 330 / 271008.7 5.4 1.5 5.3 2.4 7.3
2015-Jul-23 08:00N 75°00' E 011°48'7 6.8 330 / 251008.7 5.6 3.3 7.2
2015-Jul-23 07:00N 74°54' E 012°00'1312.9 330 / 231008.9 5.7 3.6 7.2
2015-Jul-23 06:00N 74°42' E 012°18'1212.4 330 / 211009.5 5.4 1.0 5.7 3.7 7.1
2015-Jul-23 05:00N 74°30' E 012°30'8 7.7 310 / 191009.4 6.6 5.1 7.2
2015-Jul-23 04:00N 74°24' E 012°48'1212.4 320 / 211010.2 5.9 4.4 7.3
2015-Jul-23 03:00N 74°12' E 013°00'8 7.8 330 / 171010.7 6.4 4.1 8.2
2015-Jul-23 02:00N 74°06' E 013°18'1212.4 340 / 161011.1 6.8 2.9 8.2
2015-Jul-23 01:00N 73°54' E 013°30'1313.0 360 / 121011.2 6.9 3.1 8.3
2015-Jul-23 00:00N 73°42' E 013°48'7 6.9 350 / 101011.5 6.3 3.1 8.5
2015-Jul-22 23:00N 73°36' E 014°00'1313.0 340 / 101011.7 5.5 3.9 8.8
2015-Jul-22 22:00N 73°24' E 014°18'7 6.9 330 / 141011.6 6.6 4.0 8.8
2015-Jul-22 21:00N 73°18' E 014°30'1212.5 350 / 101011.9 6.1 3.1 8.6
2015-Jul-22 20:00N 73°06' E 014°42'1313.1 010 / 121012.1 5.9 3.5 8.8
2015-Jul-22 19:00N 72°54' E 015°00'7 7.0 030 / 161012.2 5.5 3.9 8.7
2015-Jul-22 18:00N 72°48' E 015°12'1312.5 040 / 141012.210.8 1.0 6.0 3.6 8.7
2015-Jul-22 17:00N 72°36' E 015°24'8 8.1 030 / 171011.8 6.5 4.5 9.2
2015-Jul-22 16:00N 72°30' E 015°42'1312.5 050 / 191011.3 7.2 4.4 9.2
2015-Jul-22 15:00N 72°18' E 015°54'1312.5 070 / 191011.010.8 1.0 7.5 3.1 9.2
2015-Jul-22 14:00N 72°06' E 016°06'7 7.0 070 / 171010.8 6.8 3.4 9.6
2015-Jul-22 13:00N 72°00' E 016°18'1312.6 060 / 171010.5 6.7 4.3 9.5
2015-Jul-22 12:00N 71°48' E 016°30'8 8.2 070 / 211010.110.8 1.5 7.4 3.7 9.4
2015-Jul-22 11:00N 71°42' E 016°48'1312.6 080 / 211009.7 7.8 4.3 9.3
2015-Jul-22 10:00N 71°30' E 017°00'1312.6 070 / 231009.3 6.2 5.1 9.1
2015-Jul-22 09:00N 71°18' E 017°12'7 7.1 070 / 231008.7 5.4 1.5 6.3 4.8 9.4
2015-Jul-22 08:00N 71°12' E 017°24'1312.6 070 / 231008.3 7.0 4.7 9.4
2015-Jul-22 07:00N 71°00' E 017°36'8 8.4 060 / 231007.4 6.9 4.1 9.6
2015-Jul-22 06:00N 70°54' E 017°54'1211.5 060 / 231007.110.8 1.5 6.8 4.2 9.5
2015-Jul-22 05:00N 70°48' E 018°24'10 9.9 060 / 251006.7 6.9 5.1 9.4
2015-Jul-22 04:00N 70°42' E 018°48'1211.6 060 / 251006.4 7.3 5.4 8.9
2015-Jul-22 03:00N 70°36' E 019°18'1211.7 060 / 251006.2 7.6 5.6 9.1
2015-Jul-22 02:00N 70°30' E 019°48'8 8.0 060 / 271005.9 7.6 6.0 8.7
2015-Jul-22 01:00N 70°30' E 020°12'1312.7 060 / 251005.5 8.0 6.1 8.5
2015-Jul-22 00:00N 70°18' E 020°24'1312.7 040 / 161005.3 9.4 7.6 8.9
2015-Jul-21 23:00N 70°06' E 020°12'1313.5 360 / 161005.4 9.8 7.910.2
2015-Jul-21 22:00N 69°54' E 019°54'9 8.6 020 / 101005.6 10.2 7.010.0
2015-Jul-21 21:00N 69°48' E 019°36'1112.1 060 / 141005.5 5.4 0.510.2 7.2 9.1
2015-Jul-21 20:05N 69°46' E 019°05'442.2
2015-Jul-21 20:00N 69°42' E 019°00'2 2.1 060 / 121005.1 10.8 6.6 8.5
2015-Jul-21 19:00N 69°42' E 019°06'0 0.0 050 / 141005.3 12.3 6.6 8.6
2015-Jul-21 18:00N 69°42' E 019°06'0 0.0 050 / 141005.3 12.5 6.5 8.8
2015-Jul-21 17:00N 69°42' E 019°06'0 0.0 050 / 121005.5 12.7 6.8 8.8
2015-Jul-21 16:00N 69°42' E 019°06'0 0.0 050 / 101005.5 13.1 6.8 8.7
2015-Jul-21 15:00N 69°42' E 019°06'0 0.0 010 / 121005.5 12.8 6.7 8.6
2015-Jul-21 14:00N 69°42' E 019°06'   350 / 141006.0 12.1 6.2 8.6
Track history (hours):
 
Tides and Currents Weather Stations Pressure Air Temp Water Temp Dewpoint Dewpoint Depression Visibility Wind Speed Wind Dir Waves Ship Positions

Oceanographic research ship Polarstern (Germany)

Detailed information on ship capabilities available from University of Delaware's Ocean Information Center and ARCUS's ALIAS (Arctic Logistics Information and Support) project.

Last reported at 2015-Jul-31 08:00 UTC. Time now 2015-Jul-31 09:21 UTC.
Position N 78°36' W 002°54'.

Length 117.9 m; beam 25 m; draft 10.7 m.

MMSI: 211202460.

Wind from 010 at 16 knots

Barometer 1022.1 mb
Air temperature -0.1 ° C
Dewpoint -0.1 ° C
Water temperature -0.0 ° C

Date/timePositionNaut miles runAvg speedWind from/ knotsBaromVisibWave heightAir tempDewpointWater temp
2015-Jul-31 08:00N 78°36' W 002°54'0 0.0 010 / 161022.1 -0.1-0.1-0.0
2015-Jul-31 07:00N 78°36' W 002°54'2 2.4 020 / 171021.8 -0.1-0.1 0.2
2015-Jul-31 06:00N 78°36' W 002°42'6 6.0 020 / 141021.9 0.3 0.1 0.1-1.3
2015-Jul-31 05:00N 78°42' W 002°42'1212.0 020 / 141022.1 0.3 0.3-0.8
2015-Jul-31 04:00N 78°54' W 002°42'0 0.0 010 / 141022.0 0.2 0.2-1.2
2015-Jul-31 03:00N 78°54' W 002°42'0 0.0 020 / 121022.1 0.4 0.4-0.9
2015-Jul-31 02:00N 78°54' W 002°42'0 0.0 030 / 121022.4 0.5 0.5-1.1
2015-Jul-31 00:00N 78°54' W 002°42'0 0.0 030 / 161022.1 0.3 0.3-0.7
2015-Jul-30 23:00N 78°54' W 002°42'0 0.0 020 / 141022.0 0.3 0.3-0.4
2015-Jul-30 22:00N 78°54' W 002°42'0 0.0 030 / 121022.1 0.2 0.2-0.0
2015-Jul-30 21:00N 78°54' W 002°42'0 0.0 060 / 121022.1 0.1 0.1 0.2
2015-Jul-30 20:00N 78°54' W 002°42'1 1.2 040 / 171021.5 0.3 0.1-0.5
2015-Jul-30 19:00N 78°54' W 002°48'0 0.0 050 / 161021.7 0.1 0.1-0.5
2015-Jul-30 18:00N 78°54' W 002°48'0 0.0 050 / 171021.6 5.4 0.3 0.1-0.3
2015-Jul-30 17:00N 78°54' W 002°48'6 6.0 050 / 171021.1 0.4 0.3-0.1
2015-Jul-30 16:00N 78°48' W 002°48'6 1.2 050 / 171021.1 0.3 0.1 0.7
2015-Jul-30 11:00N 78°42' W 002°48'12 4.0 050 / 171019.8 0.9 0.8-0.3
2015-Jul-30 08:00N 78°30' W 002°48'0 0.0 080 / 121018.8 5.8 5.6 5.0
2015-Jul-30 07:00N 78°30' W 002°48'8 4.2 090 / 121018.4 6.1 6.1 5.2
2015-Jul-30 05:00N 78°36' W 002°18'7 7.1 090 / 141017.6 5.9 5.9 0.5
2015-Jul-30 04:00N 78°36' W 001°42'9 9.3 080 / 141017.3 5.7 5.7 2.2
2015-Jul-30 03:00N 78°42' W 001°06'9 9.2 080 / 161017.3 5.3 5.3 5.4
2015-Jul-30 02:00N 78°48' W 000°30'7 7.0 100 / 121017.4 5.5 5.5 3.7
2015-Jul-30 01:00N 78°48' E 000°06'8 8.3 110 / 121017.0 5.5 5.5 5.4
2015-Jul-30 00:00N 78°54' E 000°36'9 9.1 100 / 161016.8 4.4 4.4 0.3
2015-Jul-29 23:00N 79°00' E 001°12'8 8.0 100 / 161016.6 6.3 6.1-0.9
2015-Jul-29 22:00N 79°00' E 001°54'9 9.1 110 / 161016.3 6.0 5.8 3.8
2015-Jul-29 21:00N 79°06' E 002°30'3 3.4 100 / 161016.0 6.9 6.3 0.8
2015-Jul-29 20:00N 79°06' E 002°48'0 0.0 100 / 161015.8 7.6 6.0 1.2
2015-Jul-29 19:00N 79°06' E 002°48'0 0.0 110 / 161015.4 7.5 6.0 1.4
2015-Jul-29 18:00N 79°06' E 002°48'0 0.0 100 / 191014.8 5.4 7.3 6.3-0.1
2015-Jul-29 17:00N 79°06' E 002°48'0 0.0 090 / 161014.4 7.3 6.4-0.2
2015-Jul-29 16:00N 79°06' E 002°48'0 0.0 100 / 161014.0 6.9 6.5 0.9
2015-Jul-29 15:00N 79°06' E 002°48'2 2.3 110 / 161013.6 5.4 7.3 6.6 0.6
2015-Jul-29 14:00N 79°06' E 003°00'3 1.7 120 / 161013.6 7.1 6.4 3.2
2015-Jul-29 12:00N 79°06' E 003°18'0 0.0 110 / 141012.6 5.4 7.3 6.0 3.8
2015-Jul-29 11:00N 79°06' E 003°18'0 0.0 110 / 121012.4 6.9 6.3 3.8
2015-Jul-29 10:00N 79°06' E 003°18'0 0.0 120 / 121012.0 6.8 6.2 3.8
2015-Jul-29 09:00N 79°06' E 003°18'0 0.0 120 / 141011.3 2.2 0.5 6.6 6.0 4.0
2015-Jul-29 08:00N 79°06' E 003°18'0 0.0 110 / 171010.9 7.2 5.8 4.2
2015-Jul-29 07:00N 79°06' E 003°18'2 1.1 110 / 171010.7 6.9 6.4 4.9
2015-Jul-29 05:00N 79°06' E 003°30'0 0.0 080 / 121010.0 6.5 5.3 5.8
2015-Jul-29 03:00N 79°06' E 003°30'0 0.0 060 / 101010.1 6.1 5.8 7.0
2015-Jul-29 02:00N 79°06' E 003°30'0 0.0 030 / 61010.5 5.9 5.6 7.0
2015-Jul-29 01:00N 79°06' E 003°30'1 0.6 040 / 61010.7 6.2 5.4 7.1
2015-Jul-28 23:00N 79°06' E 003°36'0 0.0 090 / 61010.6 5.7 4.7 6.6
2015-Jul-28 22:00N 79°06' E 003°36'0 0.0 070 / 21010.7 5.3 4.5 7.1
2015-Jul-28 21:00N 79°06' E 003°36'0 0.0 100 / 21011.0 4.8 4.2 7.1
2015-Jul-28 20:00N 79°06' E 003°36'0 0.0 230 / 21011.0 4.7 3.9 7.1
2015-Jul-28 19:00N 79°06' E 003°36'0 0.0 200 / 21011.0 4.4 3.7 6.9
2015-Jul-28 18:00N 79°06' E 003°36'0 0.0 200 / 21011.510.8 4.1 3.7 6.9
2015-Jul-28 17:00N 79°06' E 003°36'6 5.7 060 / 41011.9 3.6 3.6 6.9
2015-Jul-28 16:00N 79°06' E 004°06'0 0.0 020 / 61012.4 3.5 3.5 7.2
2015-Jul-28 15:00N 79°06' E 004°06'0 0.0 360 / 121012.910.8 1.0 3.1 2.8 7.2
2015-Jul-28 14:00N 79°06' E 004°06'0 0.0 020 / 171013.2 3.5 2.5 7.2
2015-Jul-28 13:00N 79°06' E 004°06'0 0.0 360 / 171013.9 3.5 3.1 7.2
2015-Jul-28 12:00N 79°06' E 004°06'0 0.0 010 / 171014.810.8 1.0 3.2 2.5 7.2
2015-Jul-28 11:00N 79°06' E 004°06'0 0.0 010 / 191015.7 3.2 3.0 7.2
2015-Jul-28 10:00N 79°06' E 004°06'0 0.0 010 / 191016.0 3.2 2.0 7.2
2015-Jul-28 09:00N 79°06' E 004°06'0 0.0 020 / 191016.7 5.4 1.0 4.4 3.1 7.2
2015-Jul-28 08:00N 79°06' E 004°06'0 0.0 040 / 171017.0 5.1 2.9 7.2
2015-Jul-28 07:00N 79°06' E 004°06'0 0.0 040 / 161017.5 5.2 4.0 7.1
2015-Jul-28 06:00N 79°06' E 004°06'5 4.5 040 / 161017.610.8 0.5 5.0 2.2 7.2
2015-Jul-28 05:00N 79°06' E 003°42'0 0.0 060 / 161018.1 5.4 2.2 7.0
2015-Jul-28 04:00N 79°06' E 003°42'0 0.0 040 / 141018.7 5.5 2.3 7.2
2015-Jul-28 03:00N 79°06' E 003°42'0 0.0 050 / 121019.0 5.6 2.1 7.4
2015-Jul-28 02:00N 79°06' E 003°42'0 0.0 060 / 101019.3 5.6 2.1 7.7
2015-Jul-28 01:00N 79°06' E 003°42'0 0.0 090 / 41019.7 5.7 1.4 7.4
2015-Jul-28 00:00N 79°06' E 003°42'0 0.0 110 / 61020.1 5.7 1.0 7.7
2015-Jul-27 23:00N 79°06' E 003°42'2 2.3 100 / 61020.3 5.4 2.7 7.3
2015-Jul-27 22:00N 79°06' E 003°54'3 3.4 100 / 41020.3 5.2 2.6 7.2
2015-Jul-27 21:00N 79°06' E 004°12'0 0.0 130 / 41020.2 5.3 1.8 7.2
2015-Jul-27 20:00N 79°06' E 004°12'1 1.1 150 / 41020.6 5.0 1.7 7.3
2015-Jul-27 19:00N 79°06' E 004°18'0 0.0 170 / 81020.5 4.9 1.4 7.3
2015-Jul-27 18:00N 79°06' E 004°18'2 2.3 160 / 61020.610.8 4.8 1.4 7.2
2015-Jul-27 17:00N 79°06' E 004°06'6 6.4 130 / 101020.8 4.5 2.5 7.0
2015-Jul-27 16:00N 79°12' E 003°54'0 0.0 170 / 41020.8 4.6 1.8 6.9
2015-Jul-27 15:00N 79°12' E 003°54'8 7.5 160 / 61020.810.8 4.4 1.4 7.0
2015-Jul-27 14:00N 79°06' E 004°18'6 6.1 170 / 81021.0 4.6 1.8 7.2
2015-Jul-27 13:00N 79°00' E 004°24'0 0.0 160 / 101021.1 4.3 1.2 7.1
2015-Jul-27 12:00N 79°00' E 004°24'0 0.0 180 / 101020.910.8 0.5 4.1 1.9 7.0
2015-Jul-27 11:00N 79°00' E 004°24'7 6.9 170 / 121020.7 4.0 1.9 7.1
2015-Jul-27 10:00N 79°06' E 004°06'0 0.0 170 / 121020.6 4.2 2.2 7.1
2015-Jul-27 09:00N 79°06' E 004°06'0 0.0 170 / 121020.510.8 0.5 4.1 2.1 6.9
2015-Jul-27 08:00N 79°06' E 004°06'1 1.1 180 / 121020.3 4.0 2.4 7.1
2015-Jul-27 07:00N 79°06' E 004°12'1 1.1 180 / 141020.3 4.4 2.4 7.0
2015-Jul-27 06:00N 79°06' E 004°06'1 1.1 170 / 141020.210.8 0.5 4.0 2.9 7.0
2015-Jul-27 05:00N 79°06' E 004°12'0 0.0 170 / 161020.0 3.9 2.8 6.8
2015-Jul-27 04:00N 79°06' E 004°12'0 0.0 180 / 161019.9 4.0 2.3 6.9
2015-Jul-27 03:00N 79°06' E 004°12'1 1.1 170 / 171019.7 3.8 2.1 6.9
2015-Jul-27 02:00N 79°06' E 004°18'0 0.0 180 / 171020.0 3.8 1.9 6.8
2015-Jul-27 01:00N 79°06' E 004°18'0 0.0 180 / 171019.8 4.1 1.8 6.8
2015-Jul-27 00:00N 79°06' E 004°18'6 6.1 180 / 171019.8 4.4 1.7 6.8
2015-Jul-26 23:00N 79°00' E 004°12'0 0.0 180 / 161019.9 4.6 2.1 6.8
2015-Jul-26 22:00N 79°00' E 004°12'0 0.0 180 / 141019.9 4.5 2.1 6.8
2015-Jul-26 21:00N 79°00' E 004°12'0 0.0 170 / 141019.8 4.1 1.7 6.6
2015-Jul-26 20:00N 79°00' E 004°12'6 6.1 160 / 141019.6 3.8 1.7 7.0
2015-Jul-26 19:00N 79°06' E 004°06'0 0.0 160 / 101019.6 3.8 1.9 7.1
2015-Jul-26 18:00N 79°06' E 004°06'0 0.0 170 / 81019.710.8 4.1 2.1 6.4
2015-Jul-26 17:00N 79°06' E 004°06'0 0.0 180 / 61019.6 3.9 1.6 6.5
2015-Jul-26 16:00N 79°06' E 004°06'0 0.0 200 / 61019.6 3.6 1.4 6.7
2015-Jul-26 15:00N 79°06' E 004°06'0 0.0 240 / 61019.410.8 3.0 1.1 6.9
2015-Jul-26 14:00N 79°06' E 004°06'0 0.0 220 / 81019.2 2.2 0.7 7.1
2015-Jul-26 13:00N 79°06' E 004°06'0 0.0 240 / 81018.7 2.1 0.5 7.1
2015-Jul-26 12:00N 79°06' E 004°06'0 0.0 240 / 81018.427.0 2.0 0.5 7.0
2015-Jul-26 11:00N 79°06' E 004°06'0 0.0 250 / 81018.1 1.5-0.0 7.0
2015-Jul-26 10:00N 79°06' E 004°06'0 0.0 240 / 101017.6 1.2-0.1 6.7
2015-Jul-26 09:00N 79°06' E 004°06'0 0.0 250 / 101017.210.8 1.4-0.0 7.0
2015-Jul-26 08:00N 79°06' E 004°06'1 1.1 250 / 101016.4 1.2-0.3 6.9
2015-Jul-26 07:00N 79°06' E 004°12'0 0.0 250 / 121016.0 1.1-0.0 6.9
2015-Jul-26 06:00N 79°06' E 004°12'0 0.0 260 / 101015.510.8 1.4-0.5 6.9
2015-Jul-26 05:00N 79°06' E 004°12'0 0.0 260 / 101015.1 0.8-0.1 6.8
2015-Jul-26 04:00N 79°06' E 004°12'0 0.0 270 / 101014.6 0.8-0.2 6.9
2015-Jul-26 03:00N 79°06' E 004°12'0 0.0 280 / 121014.0 0.9-0.8 6.9
2015-Jul-26 02:00N 79°06' E 004°12'0 0.0 270 / 121013.7 0.9-0.2 7.0
2015-Jul-26 01:00N 79°06' E 004°12'0 0.0 270 / 101013.2 1.4 0.1 6.9
2015-Jul-26 00:00N 79°06' E 004°12'0 0.0 270 / 101012.7 1.2-0.2 6.9
2015-Jul-25 23:00N 79°06' E 004°12'0 0.0 270 / 101012.2 1.5 0.2 7.0
2015-Jul-25 22:00N 79°06' E 004°12'1 1.1 260 / 101011.6 1.3-0.1 7.1
2015-Jul-25 21:00N 79°06' E 004°18'0 0.0 260 / 101011.3 1.4 0.6 7.1
2015-Jul-25 20:00N 79°06' E 004°18'6 6.0 270 / 101011.0 1.7 0.4 7.1
2015-Jul-25 19:00N 79°00' E 004°18'1212.1 270 / 101010.6 1.4 0.4 6.4
2015-Jul-25 18:00N 78°48' E 004°24'6 6.0 280 / 101010.310.8 0.5 2.0 0.5 6.1
2015-Jul-25 17:00N 78°54' E 004°24'0 0.0 280 / 101010.3 1.6-0.2 6.2
2015-Jul-25 16:00N 78°54' E 004°24'6 6.4 270 / 101010.1 1.5 0.2 6.1
2015-Jul-25 15:00N 78°48' E 004°36'1313.4 280 / 101009.810.8 0.5 1.8 0.7 6.6
2015-Jul-25 14:00N 78°36' E 005°06'0 0.0 310 / 81009.6 2.1 1.4 7.0
2015-Jul-25 12:00N 78°36' E 005°06'0 0.0 300 / 101009.0 5.4 0.5 2.5 1.6 7.1
2015-Jul-25 11:00N 78°36' E 005°06'0 0.0 310 / 101008.4 2.7 1.3 7.0
2015-Jul-25 10:00N 78°36' E 005°06'0 0.0 300 / 101008.1 2.5 1.4 7.0
2015-Jul-25 09:00N 78°36' E 005°06'0 0.0 310 / 121007.4 5.4 0.5 2.3 0.9 7.0
2015-Jul-25 08:00N 78°36' E 005°06'0 0.0 300 / 141007.1 2.0 0.8 7.0
2015-Jul-25 07:00N 78°36' E 005°06'0 0.0 310 / 121006.8 2.3 1.2 7.0
2015-Jul-25 06:00N 78°36' E 005°06'0 0.0 310 / 141006.6 5.4 1.0 2.4 1.7 7.0
2015-Jul-25 05:00N 78°36' E 005°06'0 0.0 320 / 141006.5 2.5 1.8 7.1
2015-Jul-25 04:00N 78°36' E 005°06'0 0.0 320 / 121006.3 2.9 2.0 6.9
2015-Jul-25 03:00N 78°36' E 005°06'0 0.0 310 / 141006.2 2.5 1.9 6.9
2015-Jul-25 02:00N 78°36' E 005°06'0 0.0 320 / 141006.2 2.7 1.9 6.9
2015-Jul-25 01:00N 78°36' E 005°06'0 0.0 320 / 141006.2 3.2 2.1 6.9
2015-Jul-25 00:00N 78°36' E 005°06'1 1.2 320 / 161006.1 3.2 2.4 6.9
2015-Jul-24 23:00N 78°36' E 005°00'0 0.0 330 / 161006.2 3.5 1.8 7.0
2015-Jul-24 22:00N 78°36' E 005°00'0 0.0 340 / 161006.0 3.4 2.6 7.0
2015-Jul-24 21:00N 78°36' E 005°00'1 1.2 340 / 171005.8 3.7 2.6 7.0
2015-Jul-24 20:00N 78°36' E 005°06'0 0.0 350 / 161005.8 3.9 2.8 7.0
2015-Jul-24 18:00N 78°36' E 005°06'1 1.2 350 / 191005.5 5.4 1.0 4.1 3.3 7.1
2015-Jul-24 17:00N 78°36' E 005°12'1 1.2 350 / 171005.4 3.5 2.9 7.2
2015-Jul-24 16:00N 78°36' E 005°06'104 5.5 350 / 191005.5 3.5 3.1 7.1
2015-Jul-23 21:00N 77°00' E 008°18'1312.7 330 / 291006.2 4.8 4.2 7.6
2015-Jul-23 20:00N 76°48' E 008°36'7 7.3 330 / 311006.4 5.2 3.5 7.3
2015-Jul-23 19:00N 76°42' E 008°54'1212.3 330 / 311006.1 5.3 3.6 7.5
2015-Jul-23 18:00N 76°30' E 009°06'7 7.3 330 / 271006.8 5.4 3.5 5.5 3.9 7.6
2015-Jul-23 17:00N 76°24' E 009°24'1312.7 330 / 291006.6 5.5 4.0 7.4
2015-Jul-23 16:00N 76°12' E 009°42'7 6.7 330 / 291006.7 5.3 4.2 7.5
2015-Jul-23 15:00N 76°06' E 009°54'7 7.4 330 / 271006.7 2.2 3.5 5.1 3.4 7.6
2015-Jul-23 14:00N 76°00' E 010°12'1212.4 330 / 291007.6 5.1 2.8 7.6
2015-Jul-23 13:00N 75°48' E 010°24'7 7.5 330 / 291007.4 5.0 1.9 7.3
2015-Jul-23 12:00N 75°42' E 010°42'1312.8 330 / 291007.6 5.4 2.5 5.0 2.5 7.2
2015-Jul-23 11:00N 75°30' E 011°00'1212.4 330 / 271008.2 5.4 2.5 7.2
2015-Jul-23 10:00N 75°18' E 011°12'8 7.5 330 / 271008.3 5.6 1.7 7.4
2015-Jul-23 09:00N 75°12' E 011°30'1312.9 330 / 271008.7 5.4 1.5 5.3 2.4 7.3
2015-Jul-23 08:00N 75°00' E 011°48'7 6.8 330 / 251008.7 5.6 3.3 7.2
2015-Jul-23 07:00N 74°54' E 012°00'1312.9 330 / 231008.9 5.7 3.6 7.2
2015-Jul-23 06:00N 74°42' E 012°18'1212.4 330 / 211009.5 5.4 1.0 5.7 3.7 7.1
2015-Jul-23 05:00N 74°30' E 012°30'8 7.7 310 / 191009.4 6.6 5.1 7.2
2015-Jul-23 04:00N 74°24' E 012°48'1212.4 320 / 211010.2 5.9 4.4 7.3
2015-Jul-23 03:00N 74°12' E 013°00'8 7.8 330 / 171010.7 6.4 4.1 8.2
2015-Jul-23 02:00N 74°06' E 013°18'1212.4 340 / 161011.1 6.8 2.9 8.2
2015-Jul-23 01:00N 73°54' E 013°30'1313.0 360 / 121011.2 6.9 3.1 8.3
2015-Jul-23 00:00N 73°42' E 013°48'7 6.9 350 / 101011.5 6.3 3.1 8.5
2015-Jul-22 23:00N 73°36' E 014°00'1313.0 340 / 101011.7 5.5 3.9 8.8
2015-Jul-22 22:00N 73°24' E 014°18'7 6.9 330 / 141011.6 6.6 4.0 8.8
2015-Jul-22 21:00N 73°18' E 014°30'1212.5 350 / 101011.9 6.1 3.1 8.6
2015-Jul-22 20:00N 73°06' E 014°42'1313.1 010 / 121012.1 5.9 3.5 8.8
2015-Jul-22 19:00N 72°54' E 015°00'7 7.0 030 / 161012.2 5.5 3.9 8.7
2015-Jul-22 18:00N 72°48' E 015°12'1312.5 040 / 141012.210.8 1.0 6.0 3.6 8.7
2015-Jul-22 17:00N 72°36' E 015°24'8 8.1 030 / 171011.8 6.5 4.5 9.2
2015-Jul-22 16:00N 72°30' E 015°42'1312.5 050 / 191011.3 7.2 4.4 9.2
2015-Jul-22 15:00N 72°18' E 015°54'1312.5 070 / 191011.010.8 1.0 7.5 3.1 9.2
2015-Jul-22 14:00N 72°06' E 016°06'7 7.0 070 / 171010.8 6.8 3.4 9.6
2015-Jul-22 13:00N 72°00' E 016°18'1312.6 060 / 171010.5 6.7 4.3 9.5
2015-Jul-22 12:00N 71°48' E 016°30'8 8.2 070 / 211010.110.8 1.5 7.4 3.7 9.4
2015-Jul-22 11:00N 71°42' E 016°48'1312.6 080 / 211009.7 7.8 4.3 9.3
2015-Jul-22 10:00N 71°30' E 017°00'1312.6 070 / 231009.3 6.2 5.1 9.1
2015-Jul-22 09:00N 71°18' E 017°12'7 7.1 070 / 231008.7 5.4 1.5 6.3 4.8 9.4
2015-Jul-22 08:00N 71°12' E 017°24'1312.6 070 / 231008.3 7.0 4.7 9.4
2015-Jul-22 07:00N 71°00' E 017°36'8 8.4 060 / 231007.4 6.9 4.1 9.6
2015-Jul-22 06:00N 70°54' E 017°54'1211.5 060 / 231007.110.8 1.5 6.8 4.2 9.5
2015-Jul-22 05:00N 70°48' E 018°24'10 9.9 060 / 251006.7 6.9 5.1 9.4
2015-Jul-22 04:00N 70°42' E 018°48'1211.6 060 / 251006.4 7.3 5.4 8.9
2015-Jul-22 03:00N 70°36' E 019°18'1211.7 060 / 251006.2 7.6 5.6 9.1
2015-Jul-22 02:00N 70°30' E 019°48'8 8.0 060 / 271005.9 7.6 6.0 8.7
2015-Jul-22 01:00N 70°30' E 020°12'1312.7 060 / 251005.5 8.0 6.1 8.5
2015-Jul-22 00:00N 70°18' E 020°24'1312.7 040 / 161005.3 9.4 7.6 8.9
2015-Jul-21 23:00N 70°06' E 020°12'1313.5 360 / 161005.4 9.8 7.910.2
2015-Jul-21 22:00N 69°54' E 019°54'9 8.6 020 / 101005.6 10.2 7.010.0
2015-Jul-21 21:00N 69°48' E 019°36'1112.1 060 / 141005.5 5.4 0.510.2 7.2 9.1
2015-Jul-21 20:05N 69°46' E 019°05'442.2
2015-Jul-21 20:00N 69°42' E 019°00'2 2.1 060 / 121005.1 10.8 6.6 8.5
2015-Jul-21 19:00N 69°42' E 019°06'0 0.0 050 / 141005.3 12.3 6.6 8.6
2015-Jul-21 18:00N 69°42' E 019°06'0 0.0 050 / 141005.3 12.5 6.5 8.8
2015-Jul-21 17:00N 69°42' E 019°06'0 0.0 050 / 121005.5 12.7 6.8 8.8
2015-Jul-21 16:00N 69°42' E 019°06'0 0.0 050 / 101005.5 13.1 6.8 8.7
2015-Jul-21 15:00N 69°42' E 019°06'0 0.0 010 / 121005.5 12.8 6.7 8.6
2015-Jul-21 14:00N 69°42' E 019°06'   350 / 141006.0 12.1 6.2 8.6

Dump ship's entire track history